sensor_id;sensor_type;location;lat;lon;timestamp;P1;durP1;ratioP1;P2;durP2;ratioP2
11590;SDS011;5851;54.050;9.974;2023-07-30T00:02:19;6.35;;;4.80;;
11590;SDS011;5851;54.050;9.974;2023-07-30T00:04:46;6.82;;;5.00;;
11590;SDS011;5851;54.050;9.974;2023-07-30T00:07:15;6.78;;;4.80;;
11590;SDS011;5851;54.050;9.974;2023-07-30T00:09:42;8.07;;;5.25;;
11590;SDS011;5851;54.050;9.974;2023-07-30T00:12:09;6.40;;;4.30;;
11590;SDS011;5851;54.050;9.974;2023-07-30T00:14:36;5.65;;;4.72;;
11590;SDS011;5851;54.050;9.974;2023-07-30T00:17:03;6.60;;;4.75;;
11590;SDS011;5851;54.050;9.974;2023-07-30T00:19:30;6.47;;;4.90;;
11590;SDS011;5851;54.050;9.974;2023-07-30T00:21:58;6.00;;;5.28;;
11590;SDS011;5851;54.050;9.974;2023-07-30T00:24:26;5.65;;;5.07;;
11590;SDS011;5851;54.050;9.974;2023-07-30T00:26:53;6.32;;;5.60;;
11590;SDS011;5851;54.050;9.974;2023-07-30T00:29:20;5.80;;;5.18;;
11590;SDS011;5851;54.050;9.974;2023-07-30T00:31:47;7.07;;;5.30;;
11590;SDS011;5851;54.050;9.974;2023-07-30T00:34:14;8.90;;;5.75;;
11590;SDS011;5851;54.050;9.974;2023-07-30T00:36:43;6.00;;;5.18;;
11590;SDS011;5851;54.050;9.974;2023-07-30T00:39:10;5.93;;;5.32;;
11590;SDS011;5851;54.050;9.974;2023-07-30T00:41:38;6.63;;;5.30;;
11590;SDS011;5851;54.050;9.974;2023-07-30T00:44:05;6.57;;;4.90;;
11590;SDS011;5851;54.050;9.974;2023-07-30T00:46:32;6.53;;;5.00;;
11590;SDS011;5851;54.050;9.974;2023-07-30T00:48:59;6.38;;;5.32;;
11590;SDS011;5851;54.050;9.974;2023-07-30T00:51:27;5.30;;;4.80;;
11590;SDS011;5851;54.050;9.974;2023-07-30T00:53:57;6.55;;;4.47;;
11590;SDS011;5851;54.050;9.974;2023-07-30T00:56:25;5.00;;;4.53;;
11590;SDS011;5851;54.050;9.974;2023-07-30T00:58:53;7.50;;;5.65;;
11590;SDS011;5851;54.050;9.974;2023-07-30T01:01:21;7.20;;;5.85;;
11590;SDS011;5851;54.050;9.974;2023-07-30T01:03:50;5.88;;;5.28;;
11590;SDS011;5851;54.050;9.974;2023-07-30T01:06:17;6.32;;;5.70;;
11590;SDS011;5851;54.050;9.974;2023-07-30T01:08:45;6.95;;;5.40;;
11590;SDS011;5851;54.050;9.974;2023-07-30T01:11:12;6.00;;;5.40;;
11590;SDS011;5851;54.050;9.974;2023-07-30T01:13:40;5.82;;;5.22;;
11590;SDS011;5851;54.050;9.974;2023-07-30T01:16:10;6.68;;;5.68;;
11590;SDS011;5851;54.050;9.974;2023-07-30T01:18:37;7.75;;;6.00;;
11590;SDS011;5851;54.050;9.974;2023-07-30T01:21:05;6.47;;;5.30;;
11590;SDS011;5851;54.050;9.974;2023-07-30T01:23:32;6.30;;;5.55;;
11590;SDS011;5851;54.050;9.974;2023-07-30T01:26:01;7.78;;;5.63;;
11590;SDS011;5851;54.050;9.974;2023-07-30T01:28:35;5.75;;;5.00;;
11590;SDS011;5851;54.050;9.974;2023-07-30T01:31:04;7.05;;;5.13;;
11590;SDS011;5851;54.050;9.974;2023-07-30T01:33:32;7.03;;;6.03;;
11590;SDS011;5851;54.050;9.974;2023-07-30T01:36:00;5.45;;;4.95;;
11590;SDS011;5851;54.050;9.974;2023-07-30T01:38:29;7.47;;;6.78;;
11590;SDS011;5851;54.050;9.974;2023-07-30T01:40:56;6.47;;;5.55;;
11590;SDS011;5851;54.050;9.974;2023-07-30T01:43:23;6.03;;;5.43;;
11590;SDS011;5851;54.050;9.974;2023-07-30T01:45:50;7.15;;;5.93;;
11590;SDS011;5851;54.050;9.974;2023-07-30T01:48:17;8.65;;;6.93;;
11590;SDS011;5851;54.050;9.974;2023-07-30T01:50:44;8.15;;;6.25;;
11590;SDS011;5851;54.050;9.974;2023-07-30T01:53:13;6.82;;;5.68;;
11590;SDS011;5851;54.050;9.974;2023-07-30T01:55:42;7.82;;;5.90;;
11590;SDS011;5851;54.050;9.974;2023-07-30T01:58:11;7.05;;;5.80;;
11590;SDS011;5851;54.050;9.974;2023-07-30T02:00:38;6.53;;;5.75;;
11590;SDS011;5851;54.050;9.974;2023-07-30T02:03:05;6.45;;;5.85;;
11590;SDS011;5851;54.050;9.974;2023-07-30T02:05:32;6.57;;;5.75;;
11590;SDS011;5851;54.050;9.974;2023-07-30T02:07:59;6.05;;;4.90;;
11590;SDS011;5851;54.050;9.974;2023-07-30T02:10:26;6.50;;;5.20;;
11590;SDS011;5851;54.050;9.974;2023-07-30T02:12:54;5.65;;;4.43;;
11590;SDS011;5851;54.050;9.974;2023-07-30T02:15:21;6.07;;;4.80;;
11590;SDS011;5851;54.050;9.974;2023-07-30T02:17:48;5.30;;;4.80;;
11590;SDS011;5851;54.050;9.974;2023-07-30T02:20:15;7.20;;;6.03;;
11590;SDS011;5851;54.050;9.974;2023-07-30T02:22:41;6.35;;;5.75;;
11590;SDS011;5851;54.050;9.974;2023-07-30T02:25:08;6.60;;;5.30;;
11590;SDS011;5851;54.050;9.974;2023-07-30T02:27:35;5.65;;;5.10;;
11590;SDS011;5851;54.050;9.974;2023-07-30T02:30:04;5.80;;;5.20;;
11590;SDS011;5851;54.050;9.974;2023-07-30T02:32:32;6.13;;;5.53;;
11590;SDS011;5851;54.050;9.974;2023-07-30T02:34:59;5.93;;;5.25;;
11590;SDS011;5851;54.050;9.974;2023-07-30T02:37:26;6.53;;;5.90;;
11590;SDS011;5851;54.050;9.974;2023-07-30T02:39:53;5.83;;;5.27;;
11590;SDS011;5851;54.050;9.974;2023-07-30T02:42:19;6.68;;;5.70;;
11590;SDS011;5851;54.050;9.974;2023-07-30T02:44:46;6.45;;;5.55;;
11590;SDS011;5851;54.050;9.974;2023-07-30T02:47:14;6.50;;;5.80;;
11590;SDS011;5851;54.050;9.974;2023-07-30T02:49:41;6.45;;;5.78;;
11590;SDS011;5851;54.050;9.974;2023-07-30T02:52:08;6.22;;;5.68;;
11590;SDS011;5851;54.050;9.974;2023-07-30T02:54:35;6.97;;;6.28;;
11590;SDS011;5851;54.050;9.974;2023-07-30T02:57:02;6.13;;;5.63;;
11590;SDS011;5851;54.050;9.974;2023-07-30T02:59:30;6.70;;;6.03;;
11590;SDS011;5851;54.050;9.974;2023-07-30T03:02:00;6.50;;;5.70;;
11590;SDS011;5851;54.050;9.974;2023-07-30T03:04:30;6.88;;;6.20;;
11590;SDS011;5851;54.050;9.974;2023-07-30T03:06:57;7.53;;;6.82;;
11590;SDS011;5851;54.050;9.974;2023-07-30T03:09:24;6.55;;;5.95;;
11590;SDS011;5851;54.050;9.974;2023-07-30T03:11:51;8.40;;;7.50;;
11590;SDS011;5851;54.050;9.974;2023-07-30T03:14:18;7.70;;;6.35;;
11590;SDS011;5851;54.050;9.974;2023-07-30T03:16:46;7.15;;;6.00;;
11590;SDS011;5851;54.050;9.974;2023-07-30T03:19:13;7.57;;;6.78;;
11590;SDS011;5851;54.050;9.974;2023-07-30T03:21:41;6.90;;;6.20;;
11590;SDS011;5851;54.050;9.974;2023-07-30T03:24:08;10.00;;;6.75;;
11590;SDS011;5851;54.050;9.974;2023-07-30T03:26:35;10.60;;;7.18;;
11590;SDS011;5851;54.050;9.974;2023-07-30T03:29:02;7.82;;;6.57;;
11590;SDS011;5851;54.050;9.974;2023-07-30T03:31:29;8.00;;;7.20;;
11590;SDS011;5851;54.050;9.974;2023-07-30T03:33:56;8.10;;;7.30;;
11590;SDS011;5851;54.050;9.974;2023-07-30T03:36:23;9.23;;;7.70;;
11590;SDS011;5851;54.050;9.974;2023-07-30T03:38:51;8.98;;;7.78;;
11590;SDS011;5851;54.050;9.974;2023-07-30T03:41:18;9.95;;;8.27;;
11590;SDS011;5851;54.050;9.974;2023-07-30T03:43:45;8.63;;;7.72;;
11590;SDS011;5851;54.050;9.974;2023-07-30T03:46:12;9.70;;;8.70;;
11590;SDS011;5851;54.050;9.974;2023-07-30T03:48:39;9.90;;;8.03;;
11590;SDS011;5851;54.050;9.974;2023-07-30T03:51:06;8.75;;;7.85;;
11590;SDS011;5851;54.050;9.974;2023-07-30T03:53:33;8.90;;;8.00;;
11590;SDS011;5851;54.050;9.974;2023-07-30T03:56:02;9.67;;;8.67;;
11590;SDS011;5851;54.050;9.974;2023-07-30T03:58:29;8.98;;;8.07;;
11590;SDS011;5851;54.050;9.974;2023-07-30T04:00:56;9.45;;;8.45;;
11590;SDS011;5851;54.050;9.974;2023-07-30T04:03:23;9.82;;;8.85;;
11590;SDS011;5851;54.050;9.974;2023-07-30T04:05:50;10.98;;;9.55;;
11590;SDS011;5851;54.050;9.974;2023-07-30T04:08:17;11.13;;;10.03;;
11590;SDS011;5851;54.050;9.974;2023-07-30T04:10:43;10.55;;;9.45;;
11590;SDS011;5851;54.050;9.974;2023-07-30T04:13:12;11.17;;;10.07;;
11590;SDS011;5851;54.050;9.974;2023-07-30T04:15:38;12.57;;;11.27;;
11590;SDS011;5851;54.050;9.974;2023-07-30T04:18:05;11.90;;;10.70;;
11590;SDS011;5851;54.050;9.974;2023-07-30T04:20:32;11.13;;;9.93;;
11590;SDS011;5851;54.050;9.974;2023-07-30T04:22:59;12.70;;;11.07;;
11590;SDS011;5851;54.050;9.974;2023-07-30T04:25:26;12.97;;;10.97;;
11590;SDS011;5851;54.050;9.974;2023-07-30T04:27:53;12.40;;;10.13;;
11590;SDS011;5851;54.050;9.974;2023-07-30T04:30:21;14.07;;;11.13;;
11590;SDS011;5851;54.050;9.974;2023-07-30T04:32:48;15.15;;;10.93;;
11590;SDS011;5851;54.050;9.974;2023-07-30T04:35:15;10.63;;;9.63;;
11590;SDS011;5851;54.050;9.974;2023-07-30T04:37:42;12.48;;;11.07;;
11590;SDS011;5851;54.050;9.974;2023-07-30T04:40:09;12.77;;;11.48;;
11590;SDS011;5851;54.050;9.974;2023-07-30T04:42:36;10.65;;;9.65;;
11590;SDS011;5851;54.050;9.974;2023-07-30T04:45:03;12.02;;;10.73;;
11590;SDS011;5851;54.050;9.974;2023-07-30T04:47:32;11.23;;;10.10;;
11590;SDS011;5851;54.050;9.974;2023-07-30T04:49:59;10.95;;;9.65;;
11590;SDS011;5851;54.050;9.974;2023-07-30T04:52:26;12.27;;;10.40;;
11590;SDS011;5851;54.050;9.974;2023-07-30T04:54:53;13.32;;;10.80;;
11590;SDS011;5851;54.050;9.974;2023-07-30T04:57:20;11.27;;;10.10;;
11590;SDS011;5851;54.050;9.974;2023-07-30T04:59:46;9.77;;;8.83;;
11590;SDS011;5851;54.050;9.974;2023-07-30T05:02:13;10.90;;;9.80;;
11590;SDS011;5851;54.050;9.974;2023-07-30T05:04:42;12.33;;;10.73;;
11590;SDS011;5851;54.050;9.974;2023-07-30T05:07:08;14.18;;;10.32;;
11590;SDS011;5851;54.050;9.974;2023-07-30T05:09:35;12.88;;;10.00;;
11590;SDS011;5851;54.050;9.974;2023-07-30T05:12:02;10.33;;;9.23;;
11590;SDS011;5851;54.050;9.974;2023-07-30T05:14:30;10.48;;;9.38;;
11590;SDS011;5851;54.050;9.974;2023-07-30T05:16:57;13.30;;;9.37;;
11590;SDS011;5851;54.050;9.974;2023-07-30T05:19:24;10.67;;;9.47;;
11590;SDS011;5851;54.050;9.974;2023-07-30T05:21:52;10.95;;;8.95;;
11590;SDS011;5851;54.050;9.974;2023-07-30T05:24:19;11.35;;;9.10;;
11590;SDS011;5851;54.050;9.974;2023-07-30T05:26:45;14.77;;;9.15;;
11590;SDS011;5851;54.050;9.974;2023-07-30T05:29:12;12.88;;;8.65;;
11590;SDS011;5851;54.050;9.974;2023-07-30T05:31:39;9.68;;;7.90;;
11590;SDS011;5851;54.050;9.974;2023-07-30T05:34:06;10.27;;;8.57;;
11590;SDS011;5851;54.050;9.974;2023-07-30T05:36:33;9.70;;;7.87;;
11590;SDS011;5851;54.050;9.974;2023-07-30T05:39:01;8.85;;;7.10;;
11590;SDS011;5851;54.050;9.974;2023-07-30T05:41:28;9.23;;;7.07;;
11590;SDS011;5851;54.050;9.974;2023-07-30T05:43:55;11.68;;;7.60;;
11590;SDS011;5851;54.050;9.974;2023-07-30T05:46:22;7.70;;;6.35;;
11590;SDS011;5851;54.050;9.974;2023-07-30T05:48:49;11.88;;;7.13;;
11590;SDS011;5851;54.050;9.974;2023-07-30T05:51:16;7.60;;;5.43;;
11590;SDS011;5851;54.050;9.974;2023-07-30T05:53:43;9.90;;;6.25;;
11590;SDS011;5851;54.050;9.974;2023-07-30T05:56:11;9.32;;;6.10;;
11590;SDS011;5851;54.050;9.974;2023-07-30T05:58:39;9.90;;;6.80;;
11590;SDS011;5851;54.050;9.974;2023-07-30T06:01:06;9.23;;;6.50;;
11590;SDS011;5851;54.050;9.974;2023-07-30T06:03:33;9.80;;;6.00;;
11590;SDS011;5851;54.050;9.974;2023-07-30T06:06:00;8.05;;;6.28;;
11590;SDS011;5851;54.050;9.974;2023-07-30T06:08:27;8.93;;;5.88;;
11590;SDS011;5851;54.050;9.974;2023-07-30T06:11:00;10.70;;;6.23;;
11590;SDS011;5851;54.050;9.974;2023-07-30T06:13:29;10.23;;;5.93;;
11590;SDS011;5851;54.050;9.974;2023-07-30T06:15:56;9.77;;;6.35;;
11590;SDS011;5851;54.050;9.974;2023-07-30T06:18:23;9.82;;;6.38;;
11590;SDS011;5851;54.050;9.974;2023-07-30T06:20:50;9.05;;;5.90;;
11590;SDS011;5851;54.050;9.974;2023-07-30T06:23:17;12.13;;;6.50;;
11590;SDS011;5851;54.050;9.974;2023-07-30T06:25:44;12.73;;;7.10;;
11590;SDS011;5851;54.050;9.974;2023-07-30T06:28:10;12.10;;;6.63;;
11590;SDS011;5851;54.050;9.974;2023-07-30T06:30:39;11.48;;;7.30;;
11590;SDS011;5851;54.050;9.974;2023-07-30T06:33:05;10.93;;;7.40;;
11590;SDS011;5851;54.050;9.974;2023-07-30T06:35:32;10.20;;;7.57;;
11590;SDS011;5851;54.050;9.974;2023-07-30T06:37:59;12.13;;;7.43;;
11590;SDS011;5851;54.050;9.974;2023-07-30T06:40:26;10.73;;;7.87;;
11590;SDS011;5851;54.050;9.974;2023-07-30T06:42:53;10.75;;;8.02;;
11590;SDS011;5851;54.050;9.974;2023-07-30T06:45:20;12.90;;;8.05;;
11590;SDS011;5851;54.050;9.974;2023-07-30T06:47:48;14.43;;;8.38;;
11590;SDS011;5851;54.050;9.974;2023-07-30T06:50:15;13.90;;;8.43;;
11590;SDS011;5851;54.050;9.974;2023-07-30T06:52:42;13.23;;;8.80;;
11590;SDS011;5851;54.050;9.974;2023-07-30T06:55:09;12.57;;;7.95;;
11590;SDS011;5851;54.050;9.974;2023-07-30T06:57:36;9.87;;;8.10;;
11590;SDS011;5851;54.050;9.974;2023-07-30T07:00:03;12.02;;;8.15;;
11590;SDS011;5851;54.050;9.974;2023-07-30T07:02:30;11.05;;;7.95;;
11590;SDS011;5851;54.050;9.974;2023-07-30T07:04:59;14.43;;;7.30;;
11590;SDS011;5851;54.050;9.974;2023-07-30T07:07:26;14.30;;;7.88;;
11590;SDS011;5851;54.050;9.974;2023-07-30T07:09:53;14.50;;;7.40;;
11590;SDS011;5851;54.050;9.974;2023-07-30T07:12:20;12.45;;;7.22;;
11590;SDS011;5851;54.050;9.974;2023-07-30T07:14:46;12.82;;;7.25;;
11590;SDS011;5851;54.050;9.974;2023-07-30T07:17:13;9.85;;;7.05;;
11590;SDS011;5851;54.050;9.974;2023-07-30T07:19:40;9.57;;;7.18;;
11590;SDS011;5851;54.050;9.974;2023-07-30T07:22:08;17.20;;;7.75;;
11590;SDS011;5851;54.050;9.974;2023-07-30T07:24:35;12.35;;;7.70;;
11590;SDS011;5851;54.050;9.974;2023-07-30T07:27:02;11.53;;;7.43;;
11590;SDS011;5851;54.050;9.974;2023-07-30T07:29:30;13.40;;;6.63;;
11590;SDS011;5851;54.050;9.974;2023-07-30T07:31:56;14.55;;;6.68;;
11590;SDS011;5851;54.050;9.974;2023-07-30T07:34:23;10.77;;;6.45;;
11590;SDS011;5851;54.050;9.974;2023-07-30T07:36:50;14.77;;;6.93;;
11590;SDS011;5851;54.050;9.974;2023-07-30T07:39:19;12.55;;;6.68;;
11590;SDS011;5851;54.050;9.974;2023-07-30T07:41:46;13.10;;;7.18;;
11590;SDS011;5851;54.050;9.974;2023-07-30T07:44:12;9.35;;;6.68;;
11590;SDS011;5851;54.050;9.974;2023-07-30T07:46:40;13.73;;;7.10;;
11590;SDS011;5851;54.050;9.974;2023-07-30T07:49:07;13.90;;;7.28;;
11590;SDS011;5851;54.050;9.974;2023-07-30T07:51:34;9.90;;;6.32;;
11590;SDS011;5851;54.050;9.974;2023-07-30T07:54:01;12.10;;;6.22;;
11590;SDS011;5851;54.050;9.974;2023-07-30T07:56:30;13.48;;;6.35;;
11590;SDS011;5851;54.050;9.974;2023-07-30T07:58:57;11.10;;;6.00;;
11590;SDS011;5851;54.050;9.974;2023-07-30T08:01:24;10.52;;;6.03;;
11590;SDS011;5851;54.050;9.974;2023-07-30T08:03:51;11.60;;;5.60;;
11590;SDS011;5851;54.050;9.974;2023-07-30T08:06:18;11.77;;;6.30;;
11590;SDS011;5851;54.050;9.974;2023-07-30T08:08:45;11.10;;;5.40;;
11590;SDS011;5851;54.050;9.974;2023-07-30T08:11:11;14.38;;;6.03;;
11590;SDS011;5851;54.050;9.974;2023-07-30T08:13:40;9.50;;;5.40;;
11590;SDS011;5851;54.050;9.974;2023-07-30T08:16:07;8.88;;;5.22;;
11590;SDS011;5851;54.050;9.974;2023-07-30T08:18:34;9.32;;;5.10;;
11590;SDS011;5851;54.050;9.974;2023-07-30T08:21:01;10.55;;;5.03;;
11590;SDS011;5851;54.050;9.974;2023-07-30T08:23:27;11.95;;;4.70;;
11590;SDS011;5851;54.050;9.974;2023-07-30T08:25:54;10.50;;;4.80;;
11590;SDS011;5851;54.050;9.974;2023-07-30T08:28:22;10.60;;;4.88;;
11590;SDS011;5851;54.050;9.974;2023-07-30T08:30:50;13.93;;;4.90;;
11590;SDS011;5851;54.050;9.974;2023-07-30T08:33:17;11.32;;;4.63;;
11590;SDS011;5851;54.050;9.974;2023-07-30T08:35:44;10.35;;;4.65;;
11590;SDS011;5851;54.050;9.974;2023-07-30T08:38:11;11.35;;;4.32;;
11590;SDS011;5851;54.050;9.974;2023-07-30T08:40:38;8.57;;;4.32;;
11590;SDS011;5851;54.050;9.974;2023-07-30T08:43:05;7.43;;;4.47;;
11590;SDS011;5851;54.050;9.974;2023-07-30T08:45:32;7.15;;;4.18;;
11590;SDS011;5851;54.050;9.974;2023-07-30T08:48:00;11.15;;;4.32;;
11590;SDS011;5851;54.050;9.974;2023-07-30T08:50:27;8.95;;;4.55;;
11590;SDS011;5851;54.050;9.974;2023-07-30T08:52:55;9.15;;;4.22;;
11590;SDS011;5851;54.050;9.974;2023-07-30T08:55:22;9.68;;;4.30;;
11590;SDS011;5851;54.050;9.974;2023-07-30T08:57:49;10.13;;;4.60;;
11590;SDS011;5851;54.050;9.974;2023-07-30T09:00:17;11.43;;;4.93;;
11590;SDS011;5851;54.050;9.974;2023-07-30T09:02:47;7.82;;;4.25;;
11590;SDS011;5851;54.050;9.974;2023-07-30T09:05:18;9.15;;;4.25;;
11590;SDS011;5851;54.050;9.974;2023-07-30T09:07:47;9.98;;;4.30;;
11590;SDS011;5851;54.050;9.974;2023-07-30T09:10:15;9.32;;;4.15;;
11590;SDS011;5851;54.050;9.974;2023-07-30T09:12:42;11.27;;;4.80;;
11590;SDS011;5851;54.050;9.974;2023-07-30T09:15:09;9.35;;;4.50;;
11590;SDS011;5851;54.050;9.974;2023-07-30T09:17:36;9.35;;;4.10;;
11590;SDS011;5851;54.050;9.974;2023-07-30T09:20:04;9.55;;;4.40;;
11590;SDS011;5851;54.050;9.974;2023-07-30T09:22:34;10.20;;;4.43;;
11590;SDS011;5851;54.050;9.974;2023-07-30T09:25:08;10.45;;;4.43;;
11590;SDS011;5851;54.050;9.974;2023-07-30T09:27:41;11.80;;;4.22;;
11590;SDS011;5851;54.050;9.974;2023-07-30T09:30:11;11.57;;;4.45;;
11590;SDS011;5851;54.050;9.974;2023-07-30T09:32:38;13.02;;;4.95;;
11590;SDS011;5851;54.050;9.974;2023-07-30T09:35:15;9.15;;;4.53;;
11590;SDS011;5851;54.050;9.974;2023-07-30T09:37:48;11.73;;;4.80;;
11590;SDS011;5851;54.050;9.974;2023-07-30T09:40:15;14.43;;;4.88;;
11590;SDS011;5851;54.050;9.974;2023-07-30T09:42:44;11.27;;;4.38;;
11590;SDS011;5851;54.050;9.974;2023-07-30T09:45:20;7.75;;;4.55;;
11590;SDS011;5851;54.050;9.974;2023-07-30T09:47:48;13.68;;;4.97;;
11590;SDS011;5851;54.050;9.974;2023-07-30T09:50:16;8.75;;;4.68;;
11590;SDS011;5851;54.050;9.974;2023-07-30T09:52:53;9.07;;;4.75;;
11590;SDS011;5851;54.050;9.974;2023-07-30T09:55:24;11.63;;;5.22;;
11590;SDS011;5851;54.050;9.974;2023-07-30T09:58:01;14.77;;;4.72;;
11590;SDS011;5851;54.050;9.974;2023-07-30T10:00:29;10.88;;;5.05;;
11590;SDS011;5851;54.050;9.974;2023-07-30T10:03:02;11.98;;;5.03;;
11590;SDS011;5851;54.050;9.974;2023-07-30T10:05:32;10.20;;;4.72;;
11590;SDS011;5851;54.050;9.974;2023-07-30T10:08:04;11.15;;;4.60;;
11590;SDS011;5851;54.050;9.974;2023-07-30T10:10:34;11.98;;;4.15;;
11590;SDS011;5851;54.050;9.974;2023-07-30T10:13:03;8.10;;;4.25;;
11590;SDS011;5851;54.050;9.974;2023-07-30T10:15:33;13.07;;;4.45;;
11590;SDS011;5851;54.050;9.974;2023-07-30T10:18:00;9.55;;;4.43;;
11590;SDS011;5851;54.050;9.974;2023-07-30T10:20:28;10.55;;;4.72;;
11590;SDS011;5851;54.050;9.974;2023-07-30T10:22:56;11.63;;;4.53;;
11590;SDS011;5851;54.050;9.974;2023-07-30T10:25:27;9.63;;;4.63;;
11590;SDS011;5851;54.050;9.974;2023-07-30T10:27:55;11.88;;;4.50;;
11590;SDS011;5851;54.050;9.974;2023-07-30T10:30:29;7.28;;;4.07;;
11590;SDS011;5851;54.050;9.974;2023-07-30T10:32:59;9.18;;;4.53;;
11590;SDS011;5851;54.050;9.974;2023-07-30T10:35:40;12.27;;;4.22;;
11590;SDS011;5851;54.050;9.974;2023-07-30T10:38:14;8.63;;;3.75;;
11590;SDS011;5851;54.050;9.974;2023-07-30T10:40:49;10.23;;;4.10;;
11590;SDS011;5851;54.050;9.974;2023-07-30T10:43:27;9.98;;;3.70;;
11590;SDS011;5851;54.050;9.974;2023-07-30T10:45:54;10.05;;;3.97;;
11590;SDS011;5851;54.050;9.974;2023-07-30T10:48:29;8.65;;;3.58;;
11590;SDS011;5851;54.050;9.974;2023-07-30T10:50:57;12.52;;;4.15;;
11590;SDS011;5851;54.050;9.974;2023-07-30T10:53:24;11.48;;;3.30;;
11590;SDS011;5851;54.050;9.974;2023-07-30T10:55:52;8.70;;;3.25;;
11590;SDS011;5851;54.050;9.974;2023-07-30T10:58:20;8.77;;;3.83;;
11590;SDS011;5851;54.050;9.974;2023-07-30T11:00:48;8.10;;;3.40;;
11590;SDS011;5851;54.050;9.974;2023-07-30T11:03:15;6.07;;;3.13;;
11590;SDS011;5851;54.050;9.974;2023-07-30T11:05:42;7.47;;;3.22;;
11590;SDS011;5851;54.050;9.974;2023-07-30T11:08:13;8.73;;;3.25;;
11590;SDS011;5851;54.050;9.974;2023-07-30T11:10:43;9.48;;;3.33;;
11590;SDS011;5851;54.050;9.974;2023-07-30T11:13:13;7.55;;;3.28;;
11590;SDS011;5851;54.050;9.974;2023-07-30T11:15:41;7.22;;;2.83;;
11590;SDS011;5851;54.050;9.974;2023-07-30T11:18:09;7.13;;;3.10;;
11590;SDS011;5851;54.050;9.974;2023-07-30T11:20:36;7.65;;;2.95;;
11590;SDS011;5851;54.050;9.974;2023-07-30T11:23:03;5.25;;;2.17;;
11590;SDS011;5851;54.050;9.974;2023-07-30T11:25:45;6.97;;;2.60;;
11590;SDS011;5851;54.050;9.974;2023-07-30T11:28:14;7.15;;;2.67;;
11590;SDS011;5851;54.050;9.974;2023-07-30T11:30:52;5.85;;;2.78;;
11590;SDS011;5851;54.050;9.974;2023-07-30T11:33:19;9.93;;;2.60;;
11590;SDS011;5851;54.050;9.974;2023-07-30T11:35:46;6.95;;;2.85;;
11590;SDS011;5851;54.050;9.974;2023-07-30T11:38:13;6.63;;;2.70;;
11590;SDS011;5851;54.050;9.974;2023-07-30T11:40:42;5.57;;;2.60;;
11590;SDS011;5851;54.050;9.974;2023-07-30T11:43:09;5.55;;;2.50;;
11590;SDS011;5851;54.050;9.974;2023-07-30T11:45:38;8.20;;;2.60;;
11590;SDS011;5851;54.050;9.974;2023-07-30T11:48:05;5.53;;;2.65;;
11590;SDS011;5851;54.050;9.974;2023-07-30T11:50:42;7.43;;;2.88;;
11590;SDS011;5851;54.050;9.974;2023-07-30T11:53:10;5.75;;;2.67;;
11590;SDS011;5851;54.050;9.974;2023-07-30T11:55:37;8.63;;;2.70;;
11590;SDS011;5851;54.050;9.974;2023-07-30T11:58:04;7.82;;;2.55;;
11590;SDS011;5851;54.050;9.974;2023-07-30T12:00:31;6.93;;;2.22;;
11590;SDS011;5851;54.050;9.974;2023-07-30T12:03:00;4.85;;;2.35;;
11590;SDS011;5851;54.050;9.974;2023-07-30T12:05:32;5.50;;;2.47;;
11590;SDS011;5851;54.050;9.974;2023-07-30T12:08:00;3.90;;;2.20;;
11590;SDS011;5851;54.050;9.974;2023-07-30T12:10:28;7.40;;;2.72;;
11590;SDS011;5851;54.050;9.974;2023-07-30T12:13:12;4.93;;;2.50;;
11590;SDS011;5851;54.050;9.974;2023-07-30T12:15:39;5.60;;;2.17;;
11590;SDS011;5851;54.050;9.974;2023-07-30T12:18:11;4.40;;;2.33;;
11590;SDS011;5851;54.050;9.974;2023-07-30T12:20:38;5.88;;;2.38;;
11590;SDS011;5851;54.050;9.974;2023-07-30T12:23:05;6.60;;;2.40;;
11590;SDS011;5851;54.050;9.974;2023-07-30T12:25:32;6.05;;;2.80;;
11590;SDS011;5851;54.050;9.974;2023-07-30T12:27:59;7.53;;;2.80;;
11590;SDS011;5851;54.050;9.974;2023-07-30T12:30:26;6.60;;;2.60;;
11590;SDS011;5851;54.050;9.974;2023-07-30T12:32:53;7.03;;;2.53;;
11590;SDS011;5851;54.050;9.974;2023-07-30T12:35:22;8.55;;;2.50;;
11590;SDS011;5851;54.050;9.974;2023-07-30T12:37:52;7.90;;;2.80;;
11590;SDS011;5851;54.050;9.974;2023-07-30T12:40:21;6.38;;;2.40;;
11590;SDS011;5851;54.050;9.974;2023-07-30T12:42:48;6.85;;;2.35;;
11590;SDS011;5851;54.050;9.974;2023-07-30T12:45:15;8.73;;;2.80;;
11590;SDS011;5851;54.050;9.974;2023-07-30T12:47:42;5.80;;;2.50;;
11590;SDS011;5851;54.050;9.974;2023-07-30T12:50:10;4.70;;;2.22;;
11590;SDS011;5851;54.050;9.974;2023-07-30T12:52:38;6.72;;;2.65;;
11590;SDS011;5851;54.050;9.974;2023-07-30T12:55:05;4.50;;;2.35;;
11590;SDS011;5851;54.050;9.974;2023-07-30T12:57:33;5.90;;;2.40;;
11590;SDS011;5851;54.050;9.974;2023-07-30T13:00:00;6.55;;;2.53;;
11590;SDS011;5851;54.050;9.974;2023-07-30T13:02:28;5.50;;;2.45;;
11590;SDS011;5851;54.050;9.974;2023-07-30T13:04:58;7.07;;;3.00;;
11590;SDS011;5851;54.050;9.974;2023-07-30T13:07:25;5.75;;;2.30;;
11590;SDS011;5851;54.050;9.974;2023-07-30T13:10:02;4.72;;;2.45;;
11590;SDS011;5851;54.050;9.974;2023-07-30T13:12:30;7.70;;;2.70;;
11590;SDS011;5851;54.050;9.974;2023-07-30T13:14:58;4.88;;;2.65;;
11590;SDS011;5851;54.050;9.974;2023-07-30T13:17:24;6.35;;;3.10;;
11590;SDS011;5851;54.050;9.974;2023-07-30T13:19:51;4.90;;;2.97;;
11590;SDS011;5851;54.050;9.974;2023-07-30T13:22:18;6.45;;;2.50;;
11590;SDS011;5851;54.050;9.974;2023-07-30T13:24:45;4.82;;;2.20;;
11590;SDS011;5851;54.050;9.974;2023-07-30T13:27:14;3.60;;;2.00;;
11590;SDS011;5851;54.050;9.974;2023-07-30T13:29:40;2.20;;;1.98;;
11590;SDS011;5851;54.050;9.974;2023-07-30T13:32:07;4.57;;;2.10;;
11590;SDS011;5851;54.050;9.974;2023-07-30T13:34:34;3.13;;;1.98;;
11590;SDS011;5851;54.050;9.974;2023-07-30T13:37:01;4.68;;;2.00;;
11590;SDS011;5851;54.050;9.974;2023-07-30T13:39:28;3.75;;;2.28;;
11590;SDS011;5851;54.050;9.974;2023-07-30T13:41:55;3.42;;;2.20;;
11590;SDS011;5851;54.050;9.974;2023-07-30T13:44:24;2.50;;;2.10;;
11590;SDS011;5851;54.050;9.974;2023-07-30T13:46:50;3.13;;;2.05;;
11590;SDS011;5851;54.050;9.974;2023-07-30T13:49:18;3.58;;;2.72;;
11590;SDS011;5851;54.050;9.974;2023-07-30T13:51:45;2.17;;;2.08;;
11590;SDS011;5851;54.050;9.974;2023-07-30T13:54:12;4.43;;;2.38;;
11590;SDS011;5851;54.050;9.974;2023-07-30T13:56:39;2.88;;;2.05;;
11590;SDS011;5851;54.050;9.974;2023-07-30T13:59:06;3.50;;;2.10;;
11590;SDS011;5851;54.050;9.974;2023-07-30T14:01:34;3.95;;;1.70;;
11590;SDS011;5851;54.050;9.974;2023-07-30T14:04:01;2.60;;;1.67;;
11590;SDS011;5851;54.050;9.974;2023-07-30T14:06:28;2.10;;;1.58;;
11590;SDS011;5851;54.050;9.974;2023-07-30T14:08:56;1.73;;;1.33;;
11590;SDS011;5851;54.050;9.974;2023-07-30T14:11:24;4.45;;;1.60;;
11590;SDS011;5851;54.050;9.974;2023-07-30T14:13:51;2.78;;;1.40;;
11590;SDS011;5851;54.050;9.974;2023-07-30T14:16:18;2.05;;;1.60;;
11590;SDS011;5851;54.050;9.974;2023-07-30T14:18:46;3.67;;;1.80;;
11590;SDS011;5851;54.050;9.974;2023-07-30T14:21:13;2.47;;;1.67;;
11590;SDS011;5851;54.050;9.974;2023-07-30T14:23:40;3.25;;;1.85;;
11590;SDS011;5851;54.050;9.974;2023-07-30T14:26:07;2.65;;;1.80;;
11590;SDS011;5851;54.050;9.974;2023-07-30T14:28:34;3.13;;;1.52;;
11590;SDS011;5851;54.050;9.974;2023-07-30T14:31:01;2.47;;;1.60;;
11590;SDS011;5851;54.050;9.974;2023-07-30T14:33:28;3.05;;;1.80;;
11590;SDS011;5851;54.050;9.974;2023-07-30T14:35:56;4.93;;;2.00;;
11590;SDS011;5851;54.050;9.974;2023-07-30T14:38:23;5.40;;;2.10;;
11590;SDS011;5851;54.050;9.974;2023-07-30T14:40:50;4.43;;;2.00;;
11590;SDS011;5851;54.050;9.974;2023-07-30T14:43:17;5.05;;;2.00;;
11590;SDS011;5851;54.050;9.974;2023-07-30T14:45:44;3.40;;;1.85;;
11590;SDS011;5851;54.050;9.974;2023-07-30T14:48:10;5.07;;;2.10;;
11590;SDS011;5851;54.050;9.974;2023-07-30T14:50:39;5.13;;;2.00;;
11590;SDS011;5851;54.050;9.974;2023-07-30T14:53:07;5.97;;;2.17;;
11590;SDS011;5851;54.050;9.974;2023-07-30T14:55:34;4.03;;;1.88;;
11590;SDS011;5851;54.050;9.974;2023-07-30T14:58:01;5.78;;;1.90;;
11590;SDS011;5851;54.050;9.974;2023-07-30T15:00:28;5.22;;;2.50;;